Time;durP1;ratioP1;P1;durP2;ratioP2;P2;SDS_P1;SDS_P2;PMS_P1;PMS_P2;Temp;Humidity;BMP_temperature;BMP_pressure;BME280_temperature;BME280_humidity;BME280_pressure;Samples;Min_cycle;Max_cycle;Signal;HPM_P1;HPM_P2
2021/04/01 00:02:29;;;;;;;34.08;19.07;;;;;;;31.43;33.08;159438.97;1776616;80;21199;-84
2021/04/01 00:05:02;;;;;;;36.63;19.00;;;;;;;31.34;33.21;159414.98;1805217;78;21237;-84
2021/04/01 00:07:35;;;;;;;39.38;19.67;;;;;;;31.31;33.27;159406.97;1789021;79;21252;-84
2021/04/01 00:10:12;;;;;;;29.57;18.95;;;;;;;31.40;33.25;159430.97;1832614;78;21174;-84
2021/04/01 00:12:46;;;;;;;41.53;21.42;;;;;;;31.41;33.26;159433.63;1801295;79;21356;-83
2021/04/01 00:15:19;;;;;;;39.73;20.70;;;;;;;31.33;33.35;159412.31;1819298;78;21171;-84
2021/04/01 00:17:51;;;;;;;40.80;21.15;;;;;;;31.47;33.22;159449.66;1776837;79;21306;-84
2021/04/01 00:20:24;;;;;;;41.75;21.27;;;;;;;31.47;33.19;159450.97;1800092;78;21223;-84
2021/04/01 00:22:56;;;;;;;49.18;22.07;;;;;;;31.42;33.21;159437.61;1812145;78;22495;-83
2021/04/01 00:25:29;;;;;;;45.17;22.77;;;;;;;31.48;33.13;159452.34;1807482;78;21327;-83
2021/04/01 00:28:01;;;;;;;45.40;23.47;;;;;;;31.54;33.12;159469.63;1816639;78;21637;-83
2021/04/01 00:30:33;;;;;;;47.38;23.22;;;;;;;31.57;33.11;159477.69;1785250;78;21321;-83
2021/04/01 00:33:06;;;;;;;39.42;20.77;;;;;;;31.56;33.06;159475.02;1774131;78;21166;-83
2021/04/01 00:35:38;;;;;;;35.48;19.60;;;;;;;31.55;33.05;159470.98;1813060;78;21202;-83
2021/04/01 00:38:12;;;;;;;37.15;20.70;;;;;;;31.58;32.99;159479.06;1823041;78;21329;-83
2021/04/01 00:40:44;;;;;;;35.68;19.92;;;;;;;31.48;33.10;159453.64;1814145;78;21380;-84
2021/04/01 00:43:16;;;;;;;40.70;20.97;;;;;;;31.49;33.09;159454.95;1796669;78;21388;-82
2021/04/01 00:45:49;;;;;;;32.60;19.42;;;;;;;31.46;33.16;159446.98;1786601;79;21701;-85
2021/04/01 00:48:21;;;;;;;40.20;21.10;;;;;;;31.42;33.20;159436.31;1820265;77;21317;-85
2021/04/01 00:50:55;;;;;;;45.92;22.07;;;;;;;31.43;33.21;159440.28;1817459;78;21167;-89
2021/04/01 00:53:27;;;;;;;40.43;21.82;;;;;;;31.54;33.10;159469.63;1821633;78;21135;-88
2021/04/01 00:56:00;;;;;;;41.98;20.68;;;;;;;31.51;33.11;159460.30;1825442;78;21321;-84
2021/04/01 00:58:32;;;;;;;41.08;22.40;;;;;;;31.36;33.24;159421.64;1805790;77;21214;-88
2021/04/01 01:03:55;;;;;;;37.20;19.85;;;;;;;31.52;33.10;159464.33;1794658;78;21289;-82
2021/04/01 01:06:28;;;;;;;36.05;19.80;;;;;;;31.45;33.13;159444.31;1805497;78;21383;-83
2021/04/01 01:09:00;;;;;;;33.95;18.30;;;;;;;31.36;33.21;159421.64;1811622;78;21836;-83
2021/04/01 01:11:33;;;;;;;31.93;19.60;;;;;;;31.26;33.29;159392.31;1833925;78;21205;-83
2021/04/01 01:14:08;;;;;;;36.30;19.17;;;;;;;31.23;33.26;159385.66;1818737;78;21134;-83
2021/04/01 01:16:40;;;;;;;38.38;20.17;;;;;;;31.18;33.34;159370.98;1818917;78;21851;-83
2021/04/01 01:19:46;;;;;;;33.83;18.82;;;;;;;31.14;33.35;159361.61;1789240;80;21195;-82
2021/04/01 01:22:20;;;;;;;32.78;19.02;;;;;;;31.13;33.37;159357.63;1824512;78;21181;-82
2021/04/01 01:24:53;;;;;;;33.90;19.07;;;;;;;31.13;33.30;159357.63;1833032;78;21819;-83
2021/04/01 01:27:25;;;;;;;33.45;19.10;;;;;;;31.12;33.24;159354.97;1821082;78;21348;-83
2021/04/01 01:29:57;;;;;;;42.78;21.12;;;;;;;31.09;33.23;159348.31;1801805;78;21880;-83
2021/04/01 01:32:36;;;;;;;40.70;20.35;;;;;;;31.03;33.25;159330.97;1799405;78;21301;-83
2021/04/01 01:35:06;;;;;;;32.85;19.12;;;;;;;30.94;33.27;159306.94;1821955;78;21801;-83
2021/04/01 01:37:49;;;;;;;32.28;20.17;;;;;;;30.83;33.31;159277.61;1813994;78;21281;-83
2021/04/01 01:40:26;;;;;;;36.73;20.62;;;;;;;30.71;33.46;159245.63;1819835;78;21729;-82
2021/04/01 01:43:01;;;;;;;32.95;19.37;;;;;;;30.69;33.50;159241.59;1800053;79;21265;-82
2021/04/01 01:45:33;;;;;;;32.88;19.32;;;;;;;30.64;33.55;159228.28;1799964;78;21306;-81
2021/04/01 01:48:07;;;;;;;33.85;20.45;;;;;;;30.66;33.56;159232.27;1807153;78;21340;-82
2021/04/01 01:50:40;;;;;;;33.08;18.48;;;;;;;30.61;33.64;159218.97;1818356;77;21329;-82
2021/04/01 01:53:12;;;;;;;38.58;20.45;;;;;;;30.58;33.67;159210.97;1811914;78;21364;-83
2021/04/01 01:55:45;;;;;;;34.65;19.70;;;;;;;30.45;33.85;159177.56;1819753;78;21277;-83
2021/04/01 01:58:17;;;;;;;33.78;19.70;;;;;;;30.42;33.93;159168.25;1822560;78;21293;-82
2021/04/01 02:00:56;;;;;;;37.98;20.77;;;;;;;30.36;34.03;159152.28;1815374;78;21178;-83
2021/04/01 02:03:28;;;;;;;35.43;19.15;;;;;;;30.35;34.01;159150.91;1808900;78;21175;-83
2021/04/01 02:06:03;;;;;;;36.03;21.30;;;;;;;30.38;33.99;159158.92;1822970;78;21191;-83
2021/04/01 02:08:35;;;;;;;36.00;20.50;;;;;;;30.32;34.03;159142.91;1830836;78;21205;-83
2021/04/01 02:11:07;;;;;;;41.02;21.33;;;;;;;30.36;34.01;159153.58;1822852;78;21333;-83
2021/04/01 02:13:40;;;;;;;39.50;21.45;;;;;;;30.96;33.73;159313.59;1789963;78;21355;-83
2021/04/01 02:16:13;;;;;;;43.17;22.80;;;;;;;30.58;33.70;159212.27;1811366;78;21666;-84
2021/04/01 02:18:45;;;;;;;34.23;20.10;;;;;;;30.54;33.74;159200.28;1770375;80;21159;-82
2021/04/01 02:21:21;;;;;;;41.77;22.67;;;;;;;30.51;33.82;159193.62;1741147;81;21212;-83
2021/04/01 02:23:52;;;;;;;36.60;20.48;;;;;;;30.54;33.77;159201.64;1729393;83;21278;-83
2021/04/01 02:26:25;;;;;;;41.35;20.75;;;;;;;30.46;33.87;159180.23;1764204;80;21157;-82
2021/04/01 02:28:58;;;;;;;37.90;20.70;;;;;;;30.63;33.75;159225.63;1772833;80;21603;-83
2021/04/01 02:31:30;;;;;;;40.63;21.90;;;;;;;30.67;33.64;159234.94;1772266;80;21386;-83
2021/04/01 02:34:02;;;;;;;38.83;20.60;;;;;;;30.70;33.51;159244.25;1739452;81;21191;-82
2021/04/01 02:36:35;;;;;;;36.10;20.40;;;;;;;30.67;33.51;159236.25;1799579;78;21819;-83
2021/04/01 02:39:08;;;;;;;41.60;22.10;;;;;;;30.55;33.66;159202.95;1799295;78;21292;-82
2021/04/01 02:41:40;;;;;;;36.05;21.48;;;;;;;30.54;33.69;159200.28;1787171;79;21764;-83
2021/04/01 02:44:12;;;;;;;35.98;20.72;;;;;;;30.60;33.66;159216.30;1792439;78;21697;-82
2021/04/01 02:46:46;;;;;;;40.85;21.75;;;;;;;30.58;33.66;159212.27;1824636;78;21339;-82
2021/04/01 02:49:18;;;;;;;36.50;21.68;;;;;;;30.60;33.63;159217.61;1809639;79;21163;-82
2021/04/01 02:51:51;;;;;;;41.42;20.35;;;;;;;30.69;33.60;159240.28;1802408;78;21348;-82
2021/04/01 02:54:23;;;;;;;38.50;20.77;;;;;;;30.84;33.49;159281.59;1790599;79;21186;-82
2021/04/01 02:56:56;;;;;;;39.18;21.73;;;;;;;30.87;33.48;159288.25;1805306;78;21194;-83
2021/04/01 02:59:28;;;;;;;36.53;20.40;;;;;;;31.02;33.32;159328.25;1832751;77;21340;-82
2021/04/01 03:02:00;;;;;;;30.17;19.80;;;;;;;31.06;33.29;159340.30;1825465;78;21289;-81
2021/04/01 03:04:33;;;;;;;44.42;22.32;;;;;;;31.11;33.24;159352.28;1825546;78;21800;-82
2021/04/01 03:07:06;;;;;;;33.00;19.40;;;;;;;31.14;33.17;159361.61;1810300;78;21824;-82
2021/04/01 03:09:39;;;;;;;32.95;20.20;;;;;;;31.22;33.07;159382.98;1810636;78;21175;-82
2021/04/01 03:12:12;;;;;;;35.95;20.45;;;;;;;31.24;33.00;159386.97;1794846;78;21344;-83
2021/04/01 03:14:44;;;;;;;38.78;21.55;;;;;;;31.19;33.04;159373.66;1817971;78;21194;-82
2021/04/01 03:17:17;;;;;;;32.25;19.90;;;;;;;31.15;33.10;159362.97;1802870;78;21345;-81
2021/04/01 03:19:50;;;;;;;38.50;20.48;;;;;;;31.19;33.05;159373.66;1819898;78;21148;-81
2021/04/01 03:22:23;;;;;;;36.90;19.98;;;;;;;31.13;33.14;159359.00;1812336;78;21778;-81
2021/04/01 03:24:55;;;;;;;37.95;20.57;;;;;;;31.06;33.12;159338.98;1818176;78;21740;-82
2021/04/01 03:27:27;;;;;;;34.75;18.82;;;;;;;30.97;33.24;159314.89;1799048;78;21285;-81
2021/04/01 03:30:06;;;;;;;33.78;20.57;;;;;;;30.87;33.33;159289.61;1781142;78;21151;-81
2021/04/01 03:32:49;;;;;;;42.20;21.45;;;;;;;30.89;33.29;159294.94;1816030;78;21339;-81
2021/04/01 03:35:23;;;;;;;36.77;20.60;;;;;;;31.01;33.21;159325.58;1822741;78;21641;-83
2021/04/01 03:37:57;;;;;;;37.30;20.20;;;;;;;31.08;33.09;159345.64;1822725;78;21337;-82
2021/04/01 03:40:30;;;;;;;36.77;21.57;;;;;;;30.95;33.21;159309.61;1821180;78;21339;-83
2021/04/01 03:43:02;;;;;;;36.50;21.05;;;;;;;30.75;33.49;159257.61;1803804;77;21171;-82
2021/04/01 03:45:35;;;;;;;36.10;20.25;;;;;;;30.89;33.31;159294.94;1798683;78;21367;-76
2021/04/01 03:48:09;;;;;;;42.48;20.35;;;;;;;30.82;33.40;159276.25;1811498;78;21194;-81
2021/04/01 03:50:43;;;;;;;39.42;20.62;;;;;;;30.80;33.36;159270.91;1804403;77;21375;-78
2021/04/01 03:53:16;;;;;;;37.85;20.95;;;;;;;30.98;33.25;159317.56;1801512;78;21396;-76
2021/04/01 03:55:49;;;;;;;38.05;21.17;;;;;;;30.91;33.29;159298.92;1803057;78;21336;-80
2021/04/01 03:58:42;;;;;;;33.98;19.27;;;;;;;30.66;33.56;159233.63;1801557;77;21206;-79
2021/04/01 04:03:41;;;;;;;34.70;19.42;;;;;;;30.58;33.69;159212.27;1799745;77;21422;-75
2021/04/01 04:14:13;;;;;;;37.93;21.25;;;;;;;30.47;33.72;159182.91;1804992;77;21361;-79
2021/04/01 04:16:43;;;;;;;42.25;21.80;;;;;;;30.45;33.74;159176.25;1799412;77;21723;-83
2021/04/01 04:19:16;;;;;;;40.35;21.75;;;;;;;30.52;33.65;159194.94;1800098;78;21202;-80
2021/04/01 04:21:49;;;;;;;43.83;23.10;;;;;;;30.51;33.70;159192.27;1803753;78;21788;-82
2021/04/01 04:24:23;;;;;;;39.50;20.62;;;;;;;30.62;33.52;159222.95;1800100;77;21174;-80
2021/04/01 04:27:00;;;;;;;37.15;20.48;;;;;;;30.54;33.57;159201.64;1799926;78;21412;-78
2021/04/01 04:29:30;;;;;;;40.17;21.23;;;;;;;30.59;33.51;159213.62;1808291;78;21349;-79
2021/04/01 04:32:02;;;;;;;37.90;20.37;;;;;;;30.48;33.62;159185.56;1828234;78;21151;-82
2021/04/01 04:34:34;;;;;;;42.70;22.55;;;;;;;30.49;33.60;159188.30;1817310;78;21280;-74
2021/04/01 04:37:07;;;;;;;39.85;21.07;;;;;;;30.50;33.60;159190.97;1805185;77;21356;-82
2021/04/01 04:39:41;;;;;;;40.73;21.33;;;;;;;30.55;33.53;159202.95;1800614;78;21475;-84
2021/04/01 04:42:14;;;;;;;34.25;20.02;;;;;;;30.75;33.34;159257.61;1805675;78;21360;-83
2021/04/01 04:44:46;;;;;;;46.20;21.65;;;;;;;30.73;33.32;159252.27;1805065;78;21218;-81
2021/04/01 04:47:19;;;;;;;40.15;23.50;;;;;;;30.49;33.52;159188.30;1798026;78;22585;-76
2021/04/01 04:49:52;;;;;;;38.85;19.30;;;;;;;30.36;33.64;159153.58;1801186;77;21217;-79
2021/04/01 04:52:24;;;;;;;37.50;21.05;;;;;;;30.29;33.78;159133.59;1800429;78;21361;-80
2021/04/01 04:54:57;;;;;;;39.73;22.87;;;;;;;30.29;33.81;159132.28;1713597;81;21385;-86
2021/04/01 05:00:37;;;;;;;39.03;21.07;;;;;;;30.18;33.93;159102.97;1782011;77;21364;-87
2021/04/01 05:05:44;;;;;;;40.03;21.20;;;;;;;30.13;34.00;159090.98;1802161;77;21391;-88
2021/04/01 05:08:17;;;;;;;38.73;20.52;;;;;;;30.13;34.02;159090.98;1801940;78;21308;-87
2021/04/01 05:10:52;;;;;;;35.58;20.25;;;;;;;30.21;33.98;159110.97;1803792;78;21807;-87
2021/04/01 05:13:24;;;;;;;40.25;20.97;;;;;;;30.23;34.00;159117.63;1804102;77;21725;-87
2021/04/01 05:15:57;;;;;;;38.63;19.32;;;;;;;30.28;33.99;159130.92;1803806;78;21439;-86
2021/04/01 05:18:30;;;;;;;39.08;20.40;;;;;;;30.40;33.99;159164.27;1815843;77;21308;-87
2021/04/01 05:21:05;;;;;;;33.40;18.55;;;;;;;30.64;33.78;159226.94;1801898;78;21388;-85
2021/04/01 05:23:49;;;;;;;36.25;19.35;;;;;;;30.78;33.57;159265.62;1802634;78;22785;-87
2021/04/01 05:29:04;;;;;;;41.88;21.00;;;;;;;30.87;33.56;159289.61;1804031;77;21314;-81
2021/04/01 05:31:36;;;;;;;37.83;21.40;;;;;;;30.97;33.52;159314.89;1801939;78;22010;-81
2021/04/01 05:34:09;;;;;;;39.08;20.35;;;;;;;31.13;33.40;159359.00;1804644;78;21813;-79
2021/04/01 05:36:44;;;;;;;39.88;20.10;;;;;;;31.14;33.40;159361.61;1801250;77;21337;-82
2021/04/01 05:39:17;;;;;;;38.60;19.40;;;;;;;31.22;33.38;159382.98;1800945;77;21777;-82
2021/04/01 05:41:52;;;;;;;32.80;17.82;;;;;;;31.30;33.28;159404.30;1799956;77;21249;-82
2021/04/01 05:44:47;;;;;;;33.30;18.73;;;;;;;31.34;33.24;159416.30;1802729;77;21403;-85
2021/04/01 05:47:25;;;;;;;33.92;19.55;;;;;;;31.31;33.26;159406.97;1799695;78;21162;-84
2021/04/01 06:04:26;;;;;;;37.38;20.27;;;;;;;31.42;33.05;159436.31;1798255;77;21342;-83
2021/04/01 06:07:00;;;;;;;30.60;16.80;;;;;;;31.35;33.21;159417.66;1809795;77;21749;-81
2021/04/01 06:09:30;;;;;;;31.55;18.65;;;;;;;31.49;33.21;159454.95;1804978;77;21268;-81
2021/04/01 06:12:06;;;;;;;28.47;17.10;;;;;;;31.70;33.05;159511.06;1804995;77;21217;-80
2021/04/01 06:14:56;;;;;;;27.90;15.93;;;;;;;31.80;33.11;159539.05;1805518;77;21218;-81
2021/04/01 06:17:32;;;;;;;29.92;16.12;;;;;;;31.98;32.80;159585.73;1804460;78;21355;-80
2021/04/01 06:20:09;;;;;;;30.57;17.23;;;;;;;32.23;32.79;159655.19;1807003;77;21201;-81
2021/04/01 06:22:43;;;;;;;27.65;16.65;;;;;;;32.45;32.54;159712.59;1807741;77;21252;-81
2021/04/01 06:25:20;;;;;;;28.57;15.58;;;;;;;32.55;32.25;159739.27;1826738;77;21210;-84
2021/04/01 06:27:58;;;;;;;28.65;16.32;;;;;;;32.60;32.08;159754.00;1733460;80;21164;-84
2021/04/01 06:30:37;;;;;;;25.43;15.05;;;;;;;32.62;32.06;159757.98;1770611;80;21389;-84
2021/04/01 06:33:11;;;;;;;31.27;15.90;;;;;;;32.65;32.21;159767.31;1766578;80;21182;-82
2021/04/01 06:35:56;;;;;;;24.18;14.63;;;;;;;32.78;31.92;159800.72;1767308;79;21543;-84
2021/04/01 06:38:37;;;;;;;27.85;16.48;;;;;;;33.00;31.57;159860.77;1778050;79;21281;-79
2021/04/01 06:41:24;;;;;;;26.77;14.95;;;;;;;32.84;31.77;159818.06;1770224;79;21740;-80
2021/04/01 06:44:02;;;;;;;25.45;14.40;;;;;;;33.25;31.42;159927.58;1773397;78;21186;-80
2021/04/01 06:46:46;;;;;;;23.87;15.38;;;;;;;33.27;31.21;159934.25;1765137;80;21198;-80
2021/04/01 06:49:33;;;;;;;24.67;14.78;;;;;;;33.37;31.00;159961.00;1771019;78;21705;-80
2021/04/01 06:52:10;;;;;;;30.05;14.80;;;;;;;33.31;31.08;159944.94;1736463;80;21852;-79
2021/04/01 06:54:48;;;;;;;21.93;13.13;;;;;;;33.18;31.12;159910.22;1736759;81;21423;-80
2021/04/01 06:57:46;;;;;;;27.85;13.75;;;;;;;33.32;31.03;159947.63;1775654;78;21403;-80
2021/04/01 07:00:33;;;;;;;25.20;14.28;;;;;;;33.48;31.10;159990.38;1718819;80;21440;-78
2021/04/01 07:03:11;;;;;;;27.73;15.72;;;;;;;33.85;30.88;160087.91;1730919;81;21211;-80
2021/04/01 07:05:49;;;;;;;23.27;13.25;;;;;;;34.07;30.50;160146.69;1738797;81;21959;-81
2021/04/01 07:08:19;;;;;;;21.75;11.83;;;;;;;33.89;30.60;160098.62;1739014;81;21221;-82
2021/04/01 07:13:45;;;;;;;24.30;13.40;;;;;;;33.87;30.55;160093.27;1761128;80;21360;-81
2021/04/01 07:16:38;;;;;;;19.37;13.30;;;;;;;33.99;30.39;160125.33;1749151;81;21214;-86
2021/04/01 07:47:41;;;;;;;21.50;12.65;;;;;;;34.56;30.41;160279.03;1731558;80;21365;-75
2021/04/01 07:50:21;;;;;;;22.48;14.03;;;;;;;34.76;30.13;160333.89;1733905;80;21206;-75
2021/04/01 07:53:02;;;;;;;23.62;11.80;;;;;;;34.86;30.15;160359.31;1725704;80;21733;-72
2021/04/01 07:56:16;;;;;;;21.15;12.23;;;;;;;34.95;30.13;160384.72;1735748;80;21186;-75
2021/04/01 08:01:34;;;;;;;24.67;12.80;;;;;;;35.15;29.95;160439.56;1739873;81;21306;-75
2021/04/01 08:03:56;;;;;;;19.42;11.68;;;;;;;35.32;29.82;160483.67;1775055;78;21296;-75
2021/04/01 08:06:29;;;;;;;21.93;12.07;;;;;;;35.46;29.67;160521.13;1743930;80;21197;-76
2021/04/01 08:09:11;;;;;;;21.62;12.78;;;;;;;35.49;29.64;160529.16;1770165;78;21364;-74
2021/04/01 08:11:45;;;;;;;20.92;13.00;;;;;;;35.55;29.77;160545.25;1739217;81;21708;-75
2021/04/01 08:14:24;;;;;;;23.73;13.75;;;;;;;35.67;29.71;160578.72;1766235;79;21336;-75
2021/04/01 08:17:01;;;;;;;21.00;12.82;;;;;;;35.92;29.44;160645.59;1737912;81;21238;-75
2021/04/01 08:19:29;;;;;;;17.92;11.22;;;;;;;35.90;29.52;160638.87;1735030;81;21187;-76
2021/04/01 08:22:05;;;;;;;21.35;12.95;;;;;;;36.03;29.25;160673.72;1764824;78;21190;-74
2021/04/01 08:24:48;;;;;;;19.52;11.45;;;;;;;35.99;29.29;160663.05;1736851;81;21226;-77
2021/04/01 08:27:41;;;;;;;30.77;13.78;;;;;;;36.05;29.20;160680.44;1764691;79;21312;-77
2021/04/01 08:35:58;;;;;;;21.60;13.60;;;;;;;36.60;28.84;160829.00;1739934;81;21313;-76
2021/04/01 08:38:33;;;;;;;20.48;12.75;;;;;;;36.47;28.78;160794.19;1735750;79;21848;-77
2021/04/01 08:41:29;;;;;;;22.65;11.60;;;;;;;36.43;28.84;160783.47;1762848;79;21182;-78
2021/04/01 08:44:42;;;;;;;23.67;13.50;;;;;;;36.61;28.93;160831.67;1768384;79;21305;-77
2021/04/01 08:47:44;;;;;;;22.82;13.85;;;;;;;37.15;28.46;160977.64;1772731;79;21440;-72
2021/04/01 08:50:29;;;;;;;26.50;15.90;;;;;;;38.21;27.32;161261.69;1768061;80;21725;-74
2021/04/01 08:53:32;;;;;;;18.75;12.15;;;;;;;38.87;26.86;161440.05;1803552;78;21340;-75
2021/04/01 08:56:27;;;;;;;24.67;12.80;;;;;;;39.31;26.57;161558.06;1806959;78;21351;-75
2021/04/01 08:59:25;;;;;;;18.48;11.70;;;;;;;39.38;26.54;161576.81;1802638;78;21209;-75
2021/04/01 09:01:59;;;;;;;21.05;10.75;;;;;;;38.85;26.60;161433.31;1804573;77;21157;-73
2021/04/01 09:04:33;;;;;;;17.85;10.78;;;;;;;38.27;27.07;161277.81;1814726;78;21372;-77
2021/04/01 09:07:11;;;;;;;15.63;10.53;;;;;;;38.20;27.21;161259.02;1806310;77;21344;-75
2021/04/01 09:09:46;;;;;;;17.95;12.18;;;;;;;38.00;27.42;161206.75;1809372;77;21217;-75
2021/04/01 09:15:06;;;;;;;17.92;11.50;;;;;;;38.15;27.35;161245.59;1806449;77;21364;-75
2021/04/01 09:17:38;;;;;;;22.45;11.90;;;;;;;38.30;27.29;161285.86;1802594;78;21211;-76
2021/04/01 09:20:17;;;;;;;20.50;12.47;;;;;;;38.51;27.16;161343.50;1804401;77;21156;-75
2021/04/01 09:22:58;;;;;;;19.52;10.08;;;;;;;38.87;26.82;161440.05;1803750;77;21246;-75
2021/04/01 09:25:41;;;;;;;18.87;11.33;;;;;;;39.43;26.28;161591.55;1777122;79;21226;-74
2021/04/01 09:28:14;;;;;;;15.38;10.25;;;;;;;39.90;26.00;161716.34;1773326;79;21855;-76
2021/04/01 09:30:53;;;;;;;15.53;10.82;;;;;;;40.23;25.60;161807.61;1772447;79;21969;-76
2021/04/01 09:33:26;;;;;;;16.70;11.90;;;;;;;40.40;25.62;161853.25;1772298;79;21214;-75
2021/04/01 09:36:22;;;;;;;14.78;10.20;;;;;;;40.76;25.29;161948.59;1772139;79;21348;-76
2021/04/01 09:39:06;;;;;;;15.88;10.15;;;;;;;40.98;25.15;162008.97;1772662;79;21814;-76
2021/04/01 09:41:34;;;;;;;17.60;11.38;;;;;;;41.48;24.91;162144.64;1773532;79;21152;-75
2021/04/01 09:44:07;;;;;;;16.00;10.55;;;;;;;42.05;24.38;162299.14;1771790;79;21243;-76
2021/04/01 09:47:20;;;;;;;17.45;11.40;;;;;;;42.01;24.34;162288.44;1770086;79;21218;-76
2021/04/01 09:50:11;;;;;;;21.25;12.35;;;;;;;41.41;24.61;162124.50;1773042;79;21249;-77
2021/04/01 09:53:03;;;;;;;18.32;10.98;;;;;;;41.15;25.10;162054.69;1766333;79;21733;-76
2021/04/01 09:55:44;;;;;;;14.78;9.78;;;;;;;41.89;24.42;162256.16;1767812;79;21733;-76
2021/04/01 09:58:40;;;;;;;17.37;10.18;;;;;;;42.33;23.85;162373.00;1766597;80;21190;-77
2021/04/01 10:04:15;;;;;;;15.55;9.55;;;;;;;42.58;23.71;162441.61;1780935;80;21345;-76
2021/04/01 10:06:52;;;;;;;13.90;9.63;;;;;;;42.01;23.76;162288.44;1775821;79;21316;-77
2021/04/01 10:12:37;;;;;;;16.62;10.10;;;;;;;42.48;23.64;162414.69;1792786;80;21368;-75
2021/04/01 10:15:11;;;;;;;16.15;10.45;;;;;;;44.01;22.60;162828.87;1792009;80;21207;-77
2021/04/01 10:17:43;;;;;;;15.80;9.88;;;;;;;44.26;22.32;162896.16;1783540;79;21173;-76
2021/04/01 10:20:15;;;;;;;15.03;9.83;;;;;;;44.05;22.50;162839.64;1755772;80;21816;-76
2021/04/01 10:22:48;;;;;;;17.60;10.90;;;;;;;43.33;22.84;162643.25;1765340;80;21161;-76
2021/04/01 10:25:28;;;;;;;14.28;9.88;;;;;;;43.16;23.06;162597.58;1785003;79;21346;-76
2021/04/01 10:30:36;;;;;;;11.78;8.85;;;;;;;45.35;21.22;163189.55;1789271;80;21198;-76
2021/04/01 10:33:14;;;;;;;10.65;7.42;;;;;;;45.88;20.55;163334.98;1793066;80;21352;-76
2021/04/01 10:35:50;;;;;;;12.40;8.48;;;;;;;46.00;20.18;163367.28;1790705;80;21878;-75
2021/04/01 10:38:25;;;;;;;14.10;8.58;;;;;;;46.23;20.05;163429.27;1786100;80;21305;-75
2021/04/01 10:41:05;;;;;;;14.73;9.70;;;;;;;46.31;20.03;163449.47;1766593;80;21343;-75
2021/04/01 10:43:33;;;;;;;12.65;9.65;;;;;;;45.95;20.24;163352.48;1772058;80;21241;-75
2021/04/01 10:46:06;;;;;;;16.37;9.00;;;;;;;45.60;20.35;163256.89;1788737;80;21270;-76
2021/04/01 10:48:40;;;;;;;14.63;9.28;;;;;;;45.67;20.43;163277.03;1772340;80;21335;-76
2021/04/01 10:51:12;;;;;;;13.18;8.38;;;;;;;45.19;20.74;163146.47;1763358;80;21347;-77
2021/04/01 10:53:45;;;;;;;14.03;8.78;;;;;;;44.17;21.11;162870.55;1788080;79;21698;-77
2021/04/01 10:56:17;;;;;;;14.75;8.48;;;;;;;43.90;21.73;162797.97;1787143;79;21321;-77
2021/04/01 10:58:59;;;;;;;13.72;9.58;;;;;;;43.51;21.54;162693.03;1789974;80;21717;-77
2021/04/01 11:01:39;;;;;;;16.73;10.80;;;;;;;43.71;21.74;162746.80;1784856;80;21294;-77
2021/04/01 11:04:13;;;;;;;14.07;10.23;;;;;;;43.59;21.84;162713.22;1793176;80;21333;-76
2021/04/01 11:06:46;;;;;;;20.45;11.38;;;;;;;45.39;21.05;163201.70;1781732;80;21207;-76
2021/04/01 11:09:20;;;;;;;10.43;8.00;;;;;;;45.39;21.05;163201.70;1787606;80;21183;-76
2021/04/01 11:14:37;;;;;;;12.82;8.23;;;;;;;47.40;19.31;163744.56;1733776;81;21697;-76
2021/04/01 11:17:09;;;;;;;11.03;8.58;;;;;;;47.25;19.04;163704.14;1701156;83;21836;-76
2021/04/01 11:19:42;;;;;;;13.95;8.60;;;;;;;47.32;19.28;163723.03;1734029;82;21223;-77
2021/04/01 11:22:15;;;;;;;11.95;8.45;;;;;;;47.41;19.24;163748.59;1736648;82;21890;-77
2021/04/01 11:24:48;;;;;;;14.13;9.93;;;;;;;47.50;19.09;163771.50;1736908;82;21531;-76
2021/04/01 11:27:22;;;;;;;14.63;9.15;;;;;;;47.18;19.42;163685.31;1720913;82;21229;-77
2021/04/01 11:30:00;;;;;;;11.00;7.70;;;;;;;46.38;19.71;163469.67;1736614;82;21647;-75
2021/04/01 11:32:32;;;;;;;15.48;8.08;;;;;;;45.76;19.75;163301.36;1734678;82;21229;-75
2021/04/01 11:35:07;;;;;;;18.17;8.68;;;;;;;44.85;20.23;163054.94;1737926;82;21432;-75
2021/04/01 11:37:44;;;;;;;13.68;8.15;;;;;;;44.13;20.54;162861.14;1732457;82;21364;-76
2021/04/01 11:40:15;;;;;;;11.73;8.58;;;;;;;43.68;20.67;162737.39;1708907;82;21223;-75
2021/04/01 11:42:56;;;;;;;16.48;8.30;;;;;;;43.15;20.97;162594.89;1726119;82;21207;-75
2021/04/01 11:45:36;;;;;;;16.77;10.15;;;;;;;43.66;20.84;162732.00;1746645;81;21574;-77
2021/04/01 11:48:10;;;;;;;13.40;8.60;;;;;;;44.26;20.80;162896.16;1788982;80;21297;-75
2021/04/01 11:50:42;;;;;;;12.85;9.30;;;;;;;44.97;20.04;163088.53;1737003;80;21337;-75
2021/04/01 11:53:16;;;;;;;14.47;8.15;;;;;;;44.90;19.93;163069.72;1786923;80;21296;-75
2021/04/01 11:55:54;;;;;;;14.10;9.10;;;;;;;44.17;20.43;162871.91;1773496;80;21159;-75
2021/04/01 11:58:32;;;;;;;12.28;8.55;;;;;;;44.06;20.80;162842.33;1791988;80;21820;-75
2021/04/01 12:01:10;;;;;;;12.70;7.90;;;;;;;45.13;20.28;163131.67;1781741;80;21203;-75
2021/04/01 12:06:27;;;;;;;10.98;7.67;;;;;;;46.08;19.32;163388.81;1802896;79;21654;-75
2021/04/01 12:09:00;;;;;;;16.42;9.40;;;;;;;45.80;19.54;163312.09;1778312;80;22214;-75
2021/04/01 12:11:43;;;;;;;17.45;9.98;;;;;;;45.40;20.02;163203.03;1796986;79;21305;-75
2021/04/01 12:14:19;;;;;;;14.28;9.05;;;;;;;45.42;20.22;163208.42;1755417;80;21170;-75
2021/04/01 12:16:56;;;;;;;14.30;8.90;;;;;;;45.57;20.08;163250.13;1790121;79;21249;-76
2021/04/01 12:19:29;;;;;;;14.18;8.68;;;;;;;46.05;19.71;163379.41;1796270;80;21338;-76
2021/04/01 12:22:13;;;;;;;17.07;9.50;;;;;;;46.19;19.38;163418.48;1792321;80;21364;-75
2021/04/01 12:24:44;;;;;;;12.35;8.50;;;;;;;46.10;19.80;163392.94;1761187;80;21813;-75
2021/04/01 12:27:27;;;;;;;14.85;10.25;;;;;;;46.20;19.66;163421.17;1782943;79;21402;-75
2021/04/01 12:30:01;;;;;;;12.07;9.43;;;;;;;46.30;19.67;163448.09;1783036;79;21836;-75
2021/04/01 12:32:35;;;;;;;12.18;9.00;;;;;;;46.37;19.51;163466.98;1754079;81;21201;-72
2021/04/01 12:35:10;;;;;;;11.75;8.90;;;;;;;46.10;19.62;163392.94;1719366;82;21907;-75
2021/04/01 12:37:43;;;;;;;12.43;8.80;;;;;;;46.09;19.61;163391.50;1729076;83;21192;-77
2021/04/01 12:40:19;;;;;;;11.60;7.75;;;;;;;46.04;19.78;163376.70;1710214;82;21824;-76
2021/04/01 12:42:51;;;;;;;13.45;7.60;;;;;;;45.98;19.46;163360.58;1728637;82;21324;-76
2021/04/01 12:45:29;;;;;;;10.30;7.67;;;;;;;45.97;19.50;163359.20;1739463;81;21177;-75
2021/04/01 12:48:19;;;;;;;12.58;7.87;;;;;;;45.88;19.57;163334.98;1731935;82;21388;-75
2021/04/01 12:50:49;;;;;;;10.05;7.83;;;;;;;44.78;19.82;163034.75;1720363;82;21348;-74
2021/04/01 12:53:27;;;;;;;13.38;8.00;;;;;;;44.30;20.14;162905.56;1707601;82;21325;-74
2021/04/01 12:56:22;;;;;;;11.85;8.45;;;;;;;43.88;20.54;162792.53;1729091;82;21373;-74
2021/04/01 12:59:05;;;;;;;13.50;9.30;;;;;;;43.36;20.88;162652.64;1734394;82;21372;-73
2021/04/01 13:01:48;;;;;;;13.35;8.45;;;;;;;42.53;21.45;162426.83;1721545;82;21491;-74
2021/04/01 13:04:25;;;;;;;13.13;8.88;;;;;;;42.04;21.71;162295.12;1722044;82;21372;-79
2021/04/01 13:12:24;;;;;;;12.25;7.90;;;;;;;41.08;22.40;162037.17;1659082;85;21234;-74
2021/04/01 13:14:57;;;;;;;11.63;7.03;;;;;;;40.67;22.52;161925.72;1673325;85;21388;-76
2021/04/01 13:17:30;;;;;;;11.20;7.90;;;;;;;40.93;22.54;161995.58;1715593;82;22399;-74
2021/04/01 13:20:02;;;;;;;12.28;7.37;;;;;;;41.08;22.51;162035.86;1710116;82;21433;-74
2021/04/01 13:22:56;;;;;;;9.48;7.08;;;;;;;41.28;22.40;162089.58;1721299;82;21308;-74
2021/04/01 13:25:18;;;;;;;13.30;7.35;;;;;;;41.19;22.24;162066.75;1742359;82;21198;-75
2021/04/01 13:27:47;;;;;;;10.40;7.53;;;;;;;41.01;22.20;162017.03;1727978;82;21820;-73
2021/04/01 13:30:22;;;;;;;11.35;7.28;;;;;;;40.54;22.42;161890.83;1731588;82;21772;-74
2021/04/01 13:35:56;;;;;;;9.38;6.75;;;;;;;39.98;22.83;161739.22;1712674;82;21170;-75